Time;durP1;ratioP1;P1;durP2;ratioP2;P2;SDS_P1;SDS_P2;PMS_P1;PMS_P2;Temp;Humidity;BMP_temperature;BMP_pressure;BME280_temperature;BME280_humidity;BME280_pressure;Samples;Min_cycle;Max_cycle;Signal;HPM_P1;HPM_P2
2022/03/13 00:02:17;;;;;;;9.50;6.38;;;;;;;10.67;53.08;101339.13;5052831;28;20029;-86
2022/03/13 00:04:49;;;;;;;7.78;6.30;;;;;;;10.60;54.11;101337.41;5036353;28;20040;-87
2022/03/13 00:07:24;;;;;;;7.90;6.30;;;;;;;10.66;53.10;101340.16;5052775;28;20025;-86
2022/03/13 00:09:53;;;;;;;9.73;6.97;;;;;;;10.61;54.24;101350.78;5053004;28;20529;-86
2022/03/13 00:12:26;;;;;;;9.43;6.85;;;;;;;10.53;54.33;101343.66;5019651;28;20033;-86
2022/03/13 00:14:53;;;;;;;10.77;7.65;;;;;;;10.52;54.48;101341.97;5037289;28;20098;-86
2022/03/13 00:17:21;;;;;;;8.85;6.70;;;;;;;10.50;54.48;101338.63;5052333;28;20041;-86
2022/03/13 00:19:47;;;;;;;7.80;6.07;;;;;;;10.51;54.00;101340.31;5052196;28;20075;-86
2022/03/13 00:22:15;;;;;;;8.18;6.45;;;;;;;10.52;54.71;101339.25;5052319;28;20055;-87
2022/03/13 00:24:41;;;;;;;7.93;6.47;;;;;;;10.51;54.69;101336.75;5035886;28;20025;-86
2022/03/13 00:27:07;;;;;;;7.45;6.20;;;;;;;10.53;54.29;101331.97;5036026;28;20021;-87
2022/03/13 00:29:34;;;;;;;8.90;6.20;;;;;;;10.47;54.39;101335.50;5054330;28;20086;-86
2022/03/13 00:32:03;;;;;;;8.75;6.13;;;;;;;10.49;54.55;101322.56;5036182;28;20029;-86
2022/03/13 00:34:28;;;;;;;7.32;5.80;;;;;;;10.46;54.65;101317.53;5052189;28;20033;-86
2022/03/13 00:36:54;;;;;;;7.85;5.88;;;;;;;10.46;54.87;101317.53;5052458;28;20025;-86
2022/03/13 00:39:20;;;;;;;9.30;6.20;;;;;;;10.49;54.55;101306.28;5036273;28;20531;-86
2022/03/13 00:41:46;;;;;;;7.25;6.10;;;;;;;10.44;54.60;101301.47;5035780;28;20427;-87
2022/03/13 00:44:12;;;;;;;7.97;6.22;;;;;;;10.42;55.06;101308.13;5002946;28;20096;-87
2022/03/13 00:46:38;;;;;;;7.05;5.60;;;;;;;10.41;54.81;101303.75;5035761;28;20458;-87
2022/03/13 00:49:06;;;;;;;7.30;5.63;;;;;;;10.40;54.86;101302.09;5036559;28;20032;-87
2022/03/13 00:51:33;;;;;;;7.53;5.75;;;;;;;10.39;55.06;101305.84;5036692;28;20064;-87
2022/03/13 00:53:58;;;;;;;7.78;6.30;;;;;;;10.38;54.92;101315.00;5051949;28;20546;-86
2022/03/13 00:56:24;;;;;;;8.18;6.43;;;;;;;10.33;55.13;101313.75;5018790;28;20033;-87
2022/03/13 00:58:49;;;;;;;7.32;5.75;;;;;;;10.33;54.94;101299.31;5035555;28;20116;-87
2022/03/13 01:01:16;;;;;;;7.55;5.95;;;;;;;10.29;55.11;101309.75;5052906;28;20086;-86
2022/03/13 01:03:42;;;;;;;7.30;5.40;;;;;;;10.25;55.50;101300.31;5051775;28;20413;-86
2022/03/13 01:06:08;;;;;;;6.25;5.03;;;;;;;10.28;55.04;101302.63;5053114;28;20029;-86
2022/03/13 01:08:35;;;;;;;7.35;5.05;;;;;;;10.25;54.99;101300.31;5035439;28;20374;-86
2022/03/13 01:11:02;;;;;;;7.35;5.28;;;;;;;10.24;55.46;101295.94;5051759;28;20029;-86
2022/03/13 01:13:28;;;;;;;6.18;5.38;;;;;;;10.18;55.71;101294.03;5052076;28;20036;-86
2022/03/13 01:16:14;;;;;;;5.50;4.63;;;;;;;10.13;55.17;101285.69;5051900;28;20033;-86
2022/03/13 01:18:42;;;;;;;6.72;5.30;;;;;;;10.06;56.67;101284.81;5052268;28;20037;-86
2022/03/13 01:21:09;;;;;;;9.52;6.47;;;;;;;9.99;56.83;101274.78;5052206;28;20178;-86
2022/03/13 01:23:34;;;;;;;7.88;5.57;;;;;;;9.95;56.30;101273.50;5053471;28;20037;-86
2022/03/13 01:26:22;;;;;;;9.13;6.30;;;;;;;9.96;55.37;101271.63;5035119;28;20396;-86
2022/03/13 01:28:58;;;;;;;8.23;6.18;;;;;;;9.86;56.51;101261.13;5036117;28;20044;-86
2022/03/13 01:31:29;;;;;;;7.45;5.32;;;;;;;9.84;56.11;101269.47;5056575;28;20036;-86
2022/03/13 01:33:56;;;;;;;6.80;5.47;;;;;;;9.79;57.17;101271.94;5057114;28;20105;-86
2022/03/13 01:36:21;;;;;;;7.03;5.10;;;;;;;9.73;57.32;101267.34;5055402;28;20036;-86
2022/03/13 01:38:48;;;;;;;6.63;5.15;;;;;;;9.68;57.62;101258.94;5055572;28;20451;-86
2022/03/13 01:41:13;;;;;;;6.40;4.95;;;;;;;9.65;57.72;101257.50;5056777;28;20078;-87
2022/03/13 01:43:39;;;;;;;6.40;4.78;;;;;;;9.56;58.31;101255.97;5054913;28;20052;-86
2022/03/13 01:46:07;;;;;;;6.85;5.55;;;;;;;9.56;57.71;101252.44;5055368;28;20025;-86
2022/03/13 01:48:50;;;;;;;6.15;4.85;;;;;;;9.50;57.86;101248.63;5022317;28;20131;-86
2022/03/13 01:51:16;;;;;;;7.65;5.80;;;;;;;9.50;58.42;101247.81;5055689;28;20032;-86
2022/03/13 01:53:41;;;;;;;6.80;5.40;;;;;;;9.44;58.15;101238.59;5055863;28;20032;-86
2022/03/13 01:56:07;;;;;;;6.32;5.18;;;;;;;9.36;58.76;101236.03;5055578;28;20546;-86
2022/03/13 01:58:36;;;;;;;5.93;4.70;;;;;;;9.29;59.17;101234.13;5055273;28;20067;-86
2022/03/13 02:01:01;;;;;;;6.72;5.18;;;;;;;9.25;59.71;101240.13;5055156;28;20025;-86
2022/03/13 02:03:27;;;;;;;6.97;4.85;;;;;;;9.24;58.22;101236.59;5055368;28;20032;-86
2022/03/13 02:05:53;;;;;;;5.72;5.00;;;;;;;9.21;58.56;101237.00;5038557;28;20067;-86
2022/03/13 02:08:21;;;;;;;5.50;4.50;;;;;;;9.21;59.72;101234.28;5038131;28;20040;-86
2022/03/13 02:10:47;;;;;;;5.43;4.40;;;;;;;9.18;59.66;101228.41;5038152;28;20029;-86
2022/03/13 02:13:22;;;;;;;5.03;4.40;;;;;;;9.16;59.57;101225.06;5054800;28;20112;-86
2022/03/13 02:15:48;;;;;;;5.65;4.90;;;;;;;9.18;60.00;101231.13;5038613;28;20501;-86
2022/03/13 02:18:14;;;;;;;5.93;4.90;;;;;;;9.21;60.02;101222.59;5038129;28;20037;-86
2022/03/13 02:20:44;;;;;;;6.28;4.78;;;;;;;9.21;60.10;101226.16;5055003;28;20029;-86
2022/03/13 02:23:21;;;;;;;5.05;4.47;;;;;;;9.23;58.71;101231.38;5055696;28;20025;-86
2022/03/13 02:25:58;;;;;;;5.28;4.20;;;;;;;9.23;58.99;101225.97;5055293;28;20029;-86
2022/03/13 02:28:28;;;;;;;7.35;5.40;;;;;;;9.22;60.04;101237.81;5054741;28;20062;-86
2022/03/13 02:31:02;;;;;;;6.35;5.20;;;;;;;9.23;60.12;101239.50;5054975;28;20029;-86
2022/03/13 02:33:29;;;;;;;7.00;5.78;;;;;;;9.21;60.33;101234.28;5054641;28;20119;-86
2022/03/13 02:35:58;;;;;;;7.38;5.55;;;;;;;9.25;60.24;101240.13;5021579;28;20068;-87
2022/03/13 02:38:25;;;;;;;7.93;5.88;;;;;;;9.27;59.63;101236.19;5021951;28;20040;-86
2022/03/13 02:40:54;;;;;;;8.63;6.22;;;;;;;9.29;59.43;101234.13;5053687;28;20171;-86
2022/03/13 02:43:20;;;;;;;6.30;5.50;;;;;;;9.29;58.44;101231.41;5054189;28;20051;-86
2022/03/13 02:45:47;;;;;;;6.63;5.57;;;;;;;9.30;59.40;101230.38;5037699;28;20032;-87
2022/03/13 02:48:12;;;;;;;10.18;6.40;;;;;;;9.32;59.71;101226.66;5055293;28;20054;-86
2022/03/13 02:50:39;;;;;;;8.77;6.38;;;;;;;9.29;59.80;101227.88;5053938;28;20496;-86
2022/03/13 02:53:06;;;;;;;9.75;6.07;;;;;;;9.29;60.45;101225.16;5054567;28;20358;-86
2022/03/13 02:55:37;;;;;;;8.63;6.22;;;;;;;9.27;59.95;101222.66;5053949;28;20036;-86
2022/03/13 02:58:03;;;;;;;7.22;5.90;;;;;;;9.23;61.68;101226.78;5054488;28;20025;-86
2022/03/13 03:00:47;;;;;;;7.38;6.07;;;;;;;9.21;60.08;101211.78;5053732;28;20025;-86
2022/03/13 03:03:23;;;;;;;10.73;7.20;;;;;;;9.21;61.85;101220.75;5054396;28;20112;-86
2022/03/13 03:05:50;;;;;;;8.93;6.63;;;;;;;9.22;61.23;101210.75;5055346;28;20071;-86
2022/03/13 03:08:17;;;;;;;7.15;6.32;;;;;;;9.23;63.04;101213.25;5054928;28;20104;-87
2022/03/13 03:10:43;;;;;;;8.77;6.20;;;;;;;9.27;60.80;101210.97;5054192;28;20025;-86
2022/03/13 03:13:20;;;;;;;7.45;5.95;;;;;;;9.24;62.04;101205.97;5053556;28;20029;-87
2022/03/13 03:15:47;;;;;;;8.93;6.78;;;;;;;9.27;61.79;101209.13;5055363;28;20021;-87
2022/03/13 03:18:13;;;;;;;7.50;6.03;;;;;;;9.28;63.06;101205.34;5021834;28;20474;-87
2022/03/13 03:20:39;;;;;;;8.30;6.53;;;;;;;9.27;63.23;101206.41;5053409;28;20059;-87
2022/03/13 03:23:05;;;;;;;9.75;7.45;;;;;;;9.28;63.77;101208.06;5053418;28;20389;-87
2022/03/13 03:25:31;;;;;;;9.80;7.30;;;;;;;9.28;62.80;101213.47;5053349;28;20106;-86
2022/03/13 03:27:58;;;;;;;11.45;7.72;;;;;;;9.26;63.03;101206.63;5053414;28;20099;-87
2022/03/13 03:30:29;;;;;;;9.70;7.55;;;;;;;9.26;62.38;101196.59;5020659;28;20033;-86
2022/03/13 03:33:00;;;;;;;9.93;7.57;;;;;;;9.26;63.00;101196.59;5053341;28;20116;-86
2022/03/13 03:35:26;;;;;;;8.75;7.18;;;;;;;9.24;63.80;101198.69;5053180;28;20397;-87
2022/03/13 03:37:53;;;;;;;8.98;6.90;;;;;;;9.23;63.09;101202.44;5053115;28;20032;-86
2022/03/13 03:40:31;;;;;;;10.32;7.22;;;;;;;9.25;63.46;101194.94;5053154;28;20119;-87
2022/03/13 03:42:58;;;;;;;10.25;7.97;;;;;;;9.23;63.64;101197.00;5053037;28;20044;-87
2022/03/13 03:45:24;;;;;;;10.73;8.45;;;;;;;9.27;64.42;101197.44;5054135;28;20033;-86
2022/03/13 03:47:50;;;;;;;10.65;8.25;;;;;;;9.29;63.54;101204.34;5052857;28;20119;-87
2022/03/13 03:50:17;;;;;;;10.02;7.60;;;;;;;9.30;63.39;101207.88;5053121;28;20469;-86
2022/03/13 03:52:45;;;;;;;12.35;9.43;;;;;;;9.34;64.14;101194.78;5052557;28;20041;-86
2022/03/13 03:55:14;;;;;;;11.40;9.15;;;;;;;9.33;63.26;101198.53;5053074;28;20048;-87
2022/03/13 03:57:40;;;;;;;12.90;9.25;;;;;;;9.34;64.22;101198.31;5036734;28;20100;-86
2022/03/13 04:00:10;;;;;;;12.65;9.15;;;;;;;9.33;63.70;101193.97;5052639;28;20071;-86
2022/03/13 04:02:36;;;;;;;12.77;9.00;;;;;;;9.32;63.47;101197.69;5052876;28;20086;-86
2022/03/13 04:05:03;;;;;;;11.50;8.70;;;;;;;9.32;64.33;101188.75;5035676;28;20049;-87
2022/03/13 04:07:30;;;;;;;12.45;9.05;;;;;;;9.34;63.57;101182.06;5052880;28;20483;-87
2022/03/13 04:09:55;;;;;;;11.95;9.35;;;;;;;9.32;64.93;101181.44;5036721;28;20043;-87
2022/03/13 04:12:21;;;;;;;11.32;8.77;;;;;;;9.33;66.25;101184.97;5052806;28;20108;-87
2022/03/13 04:14:46;;;;;;;13.07;9.68;;;;;;;9.29;65.57;101185.38;5052775;28;20032;-87
2022/03/13 04:17:13;;;;;;;11.60;8.80;;;;;;;9.31;64.68;101182.47;5019597;28;20072;-87
2022/03/13 04:19:38;;;;;;;12.23;9.23;;;;;;;9.30;64.56;101186.22;5052594;28;20036;-87
2022/03/13 04:22:04;;;;;;;12.63;9.55;;;;;;;9.28;64.05;101185.59;5019346;28;20041;-87
2022/03/13 04:24:34;;;;;;;12.93;9.88;;;;;;;9.27;63.71;101179.34;5052329;28;20036;-87
2022/03/13 04:27:03;;;;;;;12.20;9.52;;;;;;;9.27;63.17;101192.03;5037907;28;20047;-86
2022/03/13 04:29:29;;;;;;;12.15;9.73;;;;;;;9.25;64.96;101189.50;5036193;28;20063;-87
2022/03/13 04:31:57;;;;;;;15.18;10.40;;;;;;;9.25;65.04;101181.38;5052529;28;20037;-87
2022/03/13 04:34:30;;;;;;;13.50;10.50;;;;;;;9.20;65.67;101175.75;5052297;28;20037;-87
2022/03/13 04:37:04;;;;;;;15.32;10.63;;;;;;;9.21;65.11;101177.44;5035979;28;20040;-86
2022/03/13 04:39:35;;;;;;;15.20;11.20;;;;;;;9.21;64.33;101177.44;5053177;28;20033;-87
2022/03/13 04:42:05;;;;;;;14.73;11.23;;;;;;;9.17;64.95;101170.72;5052845;28;20063;-87
2022/03/13 04:44:34;;;;;;;15.75;12.00;;;;;;;9.09;67.02;101170.88;5052713;28;20033;-87
2022/03/13 04:47:01;;;;;;;15.45;11.40;;;;;;;9.03;67.33;101175.19;5035872;28;20060;-87
2022/03/13 04:49:27;;;;;;;15.60;12.32;;;;;;;9.01;65.73;101185.41;5035831;28;20079;-87
2022/03/13 04:51:52;;;;;;;17.88;12.50;;;;;;;8.99;66.02;101182.06;5035257;28;20041;-87
2022/03/13 04:54:19;;;;;;;16.90;12.68;;;;;;;8.91;66.68;101177.59;5052023;28;20071;-87
2022/03/13 04:56:52;;;;;;;16.75;12.35;;;;;;;8.91;66.13;101179.50;5052213;28;20032;-87
2022/03/13 04:59:18;;;;;;;16.42;12.23;;;;;;;8.84;67.62;101181.31;5035866;28;20537;-86
2022/03/13 05:01:43;;;;;;;16.13;11.95;;;;;;;8.83;65.87;101183.19;5019156;28;20123;-87
2022/03/13 05:04:09;;;;;;;17.15;12.57;;;;;;;8.76;67.00;101180.41;5036724;28;20127;-87
2022/03/13 05:06:36;;;;;;;17.00;12.57;;;;;;;8.74;66.45;101171.66;5039604;28;20067;-86
2022/03/13 05:09:05;;;;;;;17.38;13.18;;;;;;;8.69;67.43;101173.28;5056188;28;20032;-87
2022/03/13 05:11:33;;;;;;;16.30;12.23;;;;;;;8.67;66.71;101164.53;5039767;28;20393;-86
2022/03/13 05:13:58;;;;;;;15.52;12.57;;;;;;;8.64;65.96;101165.75;5039455;28;20064;-86
2022/03/13 05:16:24;;;;;;;15.50;11.40;;;;;;;8.61;66.56;101176.97;5055685;28;20044;-86
2022/03/13 05:18:53;;;;;;;16.08;11.85;;;;;;;8.59;66.02;101171.75;5056428;28;20028;-87
2022/03/13 05:21:18;;;;;;;17.00;12.68;;;;;;;8.59;65.65;101171.75;5055971;28;20156;-86
2022/03/13 05:23:46;;;;;;;16.48;11.88;;;;;;;8.53;65.93;101167.13;5055993;28;20476;-87
2022/03/13 05:26:15;;;;;;;15.40;12.10;;;;;;;8.56;65.54;101171.28;5039010;28;20024;-86
2022/03/13 05:28:40;;;;;;;15.38;11.32;;;;;;;8.53;65.38;101172.53;5038946;28;20029;-87
2022/03/13 05:31:08;;;;;;;15.27;11.55;;;;;;;8.49;65.85;101171.25;5055504;28;20472;-86
2022/03/13 05:33:34;;;;;;;14.63;11.23;;;;;;;8.51;65.16;101179.16;5039090;28;20092;-86
2022/03/13 05:36:00;;;;;;;15.05;11.25;;;;;;;8.49;65.16;101170.38;5038852;28;20048;-86
2022/03/13 05:38:26;;;;;;;15.00;11.07;;;;;;;8.52;64.75;101168.13;5038723;28;20108;-86
2022/03/13 05:40:52;;;;;;;16.15;11.98;;;;;;;8.46;65.64;101166.22;5055308;28;20112;-87
2022/03/13 05:43:21;;;;;;;16.42;11.90;;;;;;;8.46;65.91;101171.63;5021696;28;20052;-86
2022/03/13 05:45:47;;;;;;;15.55;11.52;;;;;;;8.47;64.70;101177.84;5039103;28;20116;-87
2022/03/13 05:48:17;;;;;;;16.63;12.18;;;;;;;8.43;64.20;101178.22;5055511;28;20099;-87
2022/03/13 05:50:44;;;;;;;15.57;11.68;;;;;;;8.41;64.34;101182.13;5039098;28;20052;-86
2022/03/13 05:53:10;;;;;;;15.18;11.70;;;;;;;8.43;64.08;101180.09;5038820;28;20036;-86
2022/03/13 05:55:41;;;;;;;14.63;11.35;;;;;;;8.46;63.80;101181.59;5055335;28;20028;-86
2022/03/13 05:58:08;;;;;;;16.67;11.88;;;;;;;8.45;63.77;101186.16;5054953;28;20043;-86
2022/03/13 06:00:34;;;;;;;14.70;11.00;;;;;;;8.40;64.74;101188.56;5038299;28;20025;-86
2022/03/13 06:03:00;;;;;;;13.35;9.77;;;;;;;8.43;63.58;101178.22;5038245;28;20071;-87
2022/03/13 06:05:35;;;;;;;14.75;10.85;;;;;;;8.39;64.83;101176.91;5022918;28;20032;-86
2022/03/13 06:08:03;;;;;;;15.45;11.38;;;;;;;8.40;63.71;101180.44;5023490;28;20060;-87
2022/03/13 06:10:29;;;;;;;16.13;11.38;;;;;;;8.37;64.62;101186.25;5038458;28;20033;-86
2022/03/13 06:12:55;;;;;;;14.55;10.90;;;;;;;8.39;63.54;101186.91;5054748;28;20033;-87
2022/03/13 06:15:23;;;;;;;15.88;11.32;;;;;;;8.34;63.76;101183.94;5037461;28;20115;-86
2022/03/13 06:17:56;;;;;;;16.20;12.00;;;;;;;8.29;63.89;101181.81;5054511;28;20021;-87
2022/03/13 06:20:22;;;;;;;15.23;11.15;;;;;;;8.26;64.16;101191.13;5039286;28;20028;-87
2022/03/13 06:22:51;;;;;;;17.45;11.90;;;;;;;8.32;63.34;101184.13;5038170;28;20021;-86
2022/03/13 06:25:17;;;;;;;16.15;10.80;;;;;;;8.24;63.98;101190.50;5039020;28;20061;-86
2022/03/13 06:27:43;;;;;;;15.55;10.73;;;;;;;8.23;64.31;101185.28;5037955;28;20033;-87
2022/03/13 06:30:14;;;;;;;13.65;9.98;;;;;;;8.23;63.78;101193.41;5054416;28;20492;-87
2022/03/13 06:32:44;;;;;;;13.82;10.73;;;;;;;8.25;63.50;101194.03;5054742;28;20039;-87
2022/03/13 06:35:18;;;;;;;15.40;11.23;;;;;;;8.26;63.50;101193.00;5038482;28;20029;-86
2022/03/13 06:37:44;;;;;;;13.07;10.43;;;;;;;8.29;63.22;101189.91;5037546;28;20090;-86
2022/03/13 06:40:10;;;;;;;16.25;10.75;;;;;;;8.34;63.07;101186.63;5055393;28;20029;-84
2022/03/13 06:42:38;;;;;;;12.18;9.60;;;;;;;8.39;62.70;101190.44;5055439;28;20049;-84
2022/03/13 06:45:04;;;;;;;12.90;9.98;;;;;;;8.40;62.82;101181.31;5021339;28;20033;-84
2022/03/13 06:47:30;;;;;;;13.73;10.15;;;;;;;8.49;62.22;101178.50;5037648;28;20029;-83
2022/03/13 06:49:55;;;;;;;15.02;10.75;;;;;;;8.55;61.90;101175.03;5021617;28;20033;-81
2022/03/13 06:52:21;;;;;;;14.20;10.75;;;;;;;8.59;62.32;101184.41;5037717;28;20517;-83
2022/03/13 06:54:47;;;;;;;15.10;10.60;;;;;;;8.66;61.83;101184.50;5055447;28;20029;-84
2022/03/13 06:57:16;;;;;;;13.65;10.20;;;;;;;8.66;61.58;101185.31;5055201;28;20124;-84
2022/03/13 06:59:43;;;;;;;11.98;9.27;;;;;;;8.72;61.58;101187.22;5038182;28;20465;-84
2022/03/13 07:02:10;;;;;;;13.23;9.63;;;;;;;8.75;61.51;101186.00;5020740;28;20048;-83
2022/03/13 07:04:35;;;;;;;15.05;11.63;;;;;;;8.82;61.40;101186.09;5054073;28;20415;-81
2022/03/13 07:07:01;;;;;;;13.65;9.80;;;;;;;8.82;61.17;101186.91;5037085;28;20029;-81
2022/03/13 07:09:26;;;;;;;12.55;9.60;;;;;;;8.88;60.80;101188.00;5055583;28;20465;-82
2022/03/13 07:11:52;;;;;;;14.00;9.75;;;;;;;8.89;60.49;101187.81;5037552;28;20387;-80
2022/03/13 07:14:20;;;;;;;12.48;9.93;;;;;;;8.95;60.36;101189.72;5037563;28;20037;-80
2022/03/13 07:16:46;;;;;;;15.27;10.95;;;;;;;8.97;60.19;101186.00;5054986;28;20029;-81
2022/03/13 07:19:11;;;;;;;14.13;10.32;;;;;;;9.00;60.10;101191.84;5020225;28;20036;-81
2022/03/13 07:21:38;;;;;;;15.00;10.68;;;;;;;9.04;61.05;101192.28;5021360;28;20040;-85
2022/03/13 07:24:04;;;;;;;15.05;10.18;;;;;;;9.08;60.56;101186.28;5020553;28;20404;-86
2022/03/13 07:26:38;;;;;;;14.27;10.18;;;;;;;9.12;60.45;101184.00;5020886;28;20037;-90
2022/03/13 07:29:04;;;;;;;13.48;10.43;;;;;;;9.18;59.82;101185.91;5053958;28;20053;-85
2022/03/13 07:31:31;;;;;;;12.88;9.77;;;;;;;9.25;59.58;101183.28;5053587;28;20055;-86
2022/03/13 07:33:59;;;;;;;13.15;9.75;;;;;;;9.28;59.88;101183.69;5053388;28;20025;-85
2022/03/13 07:36:27;;;;;;;12.25;9.10;;;;;;;9.35;59.25;101193.75;5054441;28;20473;-87
2022/03/13 07:38:53;;;;;;;12.30;8.85;;;;;;;9.41;59.00;101190.25;5037405;28;20043;-86
2022/03/13 07:41:18;;;;;;;12.25;9.57;;;;;;;9.47;58.40;101178.63;5052842;28;20029;-86
2022/03/13 07:43:47;;;;;;;12.18;9.30;;;;;;;9.58;58.47;101188.03;5053151;28;20382;-86
2022/03/13 07:46:12;;;;;;;13.98;10.00;;;;;;;9.69;57.98;101181.22;5020350;28;20083;-87
2022/03/13 07:48:38;;;;;;;13.25;9.95;;;;;;;9.82;57.88;101175.88;5053017;28;20065;-86
2022/03/13 07:51:07;;;;;;;13.10;10.07;;;;;;;9.86;57.28;101181.72;5053275;28;20031;-86
2022/03/13 07:53:36;;;;;;;13.07;10.07;;;;;;;9.86;57.34;101179.00;5035840;28;20107;-86
2022/03/13 07:56:01;;;;;;;14.38;10.07;;;;;;;9.83;56.88;101172.09;5036334;28;20040;-86
2022/03/13 07:58:27;;;;;;;13.25;10.15;;;;;;;9.83;56.81;101178.38;5019944;28;20033;-86
2022/03/13 08:00:53;;;;;;;14.40;10.43;;;;;;;9.95;56.70;101172.34;5036434;28;20051;-86
2022/03/13 08:03:24;;;;;;;12.50;9.65;;;;;;;10.11;56.65;101173.88;5052621;28;20032;-87
2022/03/13 08:05:51;;;;;;;13.27;9.90;;;;;;;10.31;56.22;101177.47;5052598;28;20387;-87
2022/03/13 08:08:17;;;;;;;16.17;10.90;;;;;;;10.46;55.81;101177.31;5052860;28;20465;-86
2022/03/13 08:10:42;;;;;;;14.05;10.90;;;;;;;10.62;55.64;101172.53;5036698;28;20036;-86
2022/03/13 08:13:10;;;;;;;13.68;10.05;;;;;;;10.77;55.08;101173.16;5036598;28;20480;-86
2022/03/13 08:15:35;;;;;;;17.75;12.52;;;;;;;10.91;54.34;101175.88;5036868;28;20055;-87
2022/03/13 08:18:02;;;;;;;14.63;11.25;;;;;;;11.01;53.90;101173.56;5035929;28;20477;-86
2022/03/13 08:20:28;;;;;;;13.27;9.77;;;;;;;11.08;53.76;101170.84;5052266;28;20028;-88
2022/03/13 08:23:09;;;;;;;;;;;;;;;;;;;;;
2022/03/13 08:25:36;;;;;;;13.07;10.10;;;;;;;11.23;53.25;101171.44;5054283;28;20029;-87
2022/03/13 08:28:06;;;;;;;12.70;10.05;;;;;;;11.34;53.24;101172.69;5019774;28;20123;-87
2022/03/13 08:30:35;;;;;;;14.82;10.93;;;;;;;11.38;52.91;101168.47;5052772;28;20029;-86
2022/03/13 08:33:01;;;;;;;15.60;10.85;;;;;;;11.47;52.64;101172.66;5019995;28;20044;-86
2022/03/13 08:35:30;;;;;;;13.10;9.82;;;;;;;11.57;52.65;101167.63;5035830;28;20090;-87
2022/03/13 08:37:56;;;;;;;13.18;10.07;;;;;;;11.66;52.53;101154.63;5052709;28;20040;-87
2022/03/13 08:40:25;;;;;;;12.20;9.23;;;;;;;11.76;52.29;101165.84;5034927;28;20032;-86
2022/03/13 08:42:52;;;;;;;14.15;10.15;;;;;;;11.81;51.41;101169.81;5052038;28;20053;-86
2022/03/13 08:45:18;;;;;;;13.57;10.13;;;;;;;11.77;51.57;101167.53;5036099;28;20041;-86
2022/03/13 08:47:43;;;;;;;15.38;11.57;;;;;;;11.74;51.45;101169.84;5035195;28;20032;-86
2022/03/13 08:50:10;;;;;;;13.00;10.18;;;;;;;11.64;51.91;101162.13;5035296;28;20495;-86
2022/03/13 08:52:36;;;;;;;13.38;10.38;;;;;;;11.64;52.02;101162.13;5053339;28;20052;-86
2022/03/13 08:55:08;;;;;;;15.60;11.35;;;;;;;11.65;51.49;101168.41;5035243;28;20409;-86
2022/03/13 08:57:41;;;;;;;;;;;;;;;11.63;51.83;101154.19;5035927;28;20036;-86
2022/03/13 09:00:10;;;;;;;14.63;10.93;;;;;;;11.58;51.86;101157.56;5035473;28;19917;-86
2022/03/13 09:02:37;;;;;;;17.50;11.55;;;;;;;11.58;51.56;101158.38;5036722;28;20056;-86
2022/03/13 09:05:03;;;;;;;15.18;10.60;;;;;;;11.54;51.51;101151.72;5034985;28;20029;-84
2022/03/13 09:07:28;;;;;;;15.60;11.75;;;;;;;11.53;52.03;101143.78;5053607;28;20032;-84
2022/03/13 09:09:54;;;;;;;15.98;11.27;;;;;;;11.60;51.77;101152.75;5035420;28;20112;-84
2022/03/13 09:12:20;;;;;;;13.57;10.50;;;;;;;11.61;51.58;101153.59;5052048;28;20029;-84
2022/03/13 09:14:46;;;;;;;16.17;11.50;;;;;;;11.66;51.52;101153.78;5019299;28;20124;-84
2022/03/13 09:17:12;;;;;;;14.77;10.30;;;;;;;11.68;51.36;101151.69;5034926;28;20025;-84
2022/03/13 09:19:38;;;;;;;13.02;9.85;;;;;;;11.75;51.79;101149.75;5034910;28;20499;-84
2022/03/13 09:22:04;;;;;;;14.63;11.75;;;;;;;11.75;52.20;101144.31;5035260;28;20037;-84
2022/03/13 09:24:32;;;;;;;17.35;12.73;;;;;;;11.84;51.64;101143.03;5053253;28;20025;-84
2022/03/13 09:26:57;;;;;;;18.08;12.73;;;;;;;11.85;51.52;101138.41;5035199;28;20037;-83
2022/03/13 09:29:23;;;;;;;15.38;11.90;;;;;;;11.94;51.88;101137.13;5035243;28;20064;-84
2022/03/13 09:31:48;;;;;;;15.70;11.30;;;;;;;12.03;51.47;101141.28;5018308;28;20477;-84
2022/03/13 09:34:14;;;;;;;14.73;10.45;;;;;;;12.06;51.57;101146.31;5053265;28;20220;-84
2022/03/13 09:36:43;;;;;;;12.80;9.20;;;;;;;12.16;51.51;101153.13;5019046;28;20065;-85
2022/03/13 09:39:09;;;;;;;16.38;11.95;;;;;;;12.26;50.54;101140.72;5052260;28;20037;-84
2022/03/13 09:41:37;;;;;;;16.90;11.85;;;;;;;12.21;50.57;101148.72;5051608;28;20036;-85
2022/03/13 09:44:07;;;;;;;15.48;11.70;;;;;;;12.38;50.82;101143.56;5051543;28;20127;-83
2022/03/13 09:46:34;;;;;;;14.55;11.07;;;;;;;12.39;50.45;101142.53;5019127;28;20033;-84
2022/03/13 09:49:00;;;;;;;16.67;11.35;;;;;;;12.51;50.19;101139.94;5035171;28;20032;-85
2022/03/13 09:51:28;;;;;;;15.75;11.55;;;;;;;12.53;50.02;101145.97;5054798;28;20357;-84
2022/03/13 09:53:53;;;;;;;14.63;11.05;;;;;;;12.57;50.14;101147.19;5038735;28;20041;-84
2022/03/13 09:56:19;;;;;;;14.95;10.50;;;;;;;12.65;50.09;101143.34;5038585;28;20029;-84
2022/03/13 09:58:45;;;;;;;13.98;10.57;;;;;;;12.76;50.09;101142.66;5038431;28;20064;-84
2022/03/13 10:01:12;;;;;;;11.50;9.30;;;;;;;12.86;49.95;101133.97;5055264;28;20449;-84
2022/03/13 10:03:38;;;;;;;13.93;10.38;;;;;;;12.96;49.44;101137.03;5055353;28;20032;-84
2022/03/13 10:06:03;;;;;;;14.07;11.00;;;;;;;13.21;48.96;101140.75;5022026;28;20053;-84
2022/03/13 10:08:32;;;;;;;14.18;10.40;;;;;;;13.22;48.81;101137.81;5039019;28;20060;-84
2022/03/13 10:10:59;;;;;;;13.88;9.90;;;;;;;13.35;48.92;101134.16;5037991;28;20060;-84
2022/03/13 10:13:46;;;;;;;11.68;9.30;;;;;;;13.49;47.90;101130.22;5054527;28;20036;-84
2022/03/13 10:16:19;;;;;;;13.38;10.15;;;;;;;13.51;47.69;101133.53;5054388;28;20029;-86
2022/03/13 10:18:46;;;;;;;12.70;9.10;;;;;;;13.66;48.16;101122.22;5038383;28;20024;-84
2022/03/13 10:21:17;;;;;;;12.10;9.73;;;;;;;13.80;47.22;101120.19;5038020;28;20029;-84
2022/03/13 10:23:47;;;;;;;12.55;9.57;;;;;;;13.95;47.05;101117.03;5055988;28;20412;-84
2022/03/13 10:26:16;;;;;;;11.43;8.93;;;;;;;14.10;46.84;101110.31;5038051;28;20037;-84
2022/03/13 10:28:42;;;;;;;13.93;9.55;;;;;;;14.17;46.57;101116.50;5038179;28;20049;-84
2022/03/13 10:31:13;;;;;;;11.52;9.40;;;;;;;14.27;45.96;101105.03;5037917;28;20495;-84
2022/03/13 10:33:44;;;;;;;11.68;8.90;;;;;;;14.33;46.23;101110.38;5054888;28;20055;-84
2022/03/13 10:36:11;;;;;;;10.20;8.27;;;;;;;14.47;45.78;101107.44;5037894;28;20025;-84
2022/03/13 10:38:37;;;;;;;10.25;7.75;;;;;;;14.69;45.29;101094.91;5038227;28;20090;-84
2022/03/13 10:41:08;;;;;;;12.45;9.35;;;;;;;14.94;44.40;101101.19;5053976;28;20029;-84
2022/03/13 10:43:37;;;;;;;12.32;9.85;;;;;;;15.01;43.78;101104.63;5034910;28;20165;-84
2022/03/13 10:46:04;;;;;;;12.43;9.02;;;;;;;15.09;43.73;101102.38;5035242;28;20108;-85
2022/03/13 10:48:33;;;;;;;13.40;9.90;;;;;;;15.10;43.46;101103.19;5051461;28;20133;-84
2022/03/13 10:51:01;;;;;;;11.43;8.73;;;;;;;15.02;43.89;101098.94;5051033;28;20465;-84
2022/03/13 10:53:30;;;;;;;12.32;9.45;;;;;;;15.17;43.77;101097.63;5033704;28;20029;-84
2022/03/13 10:56:00;;;;;;;9.07;7.65;;;;;;;15.32;43.20;101097.94;5050770;28;20025;-84
2022/03/13 10:58:30;;;;;;;10.30;7.57;;;;;;;15.58;43.20;101093.00;5050726;28;20120;-84
2022/03/13 11:01:07;;;;;;;10.35;8.38;;;;;;;15.50;42.74;101099.69;5050990;28;20033;-85
2022/03/13 11:03:37;;;;;;;10.02;8.02;;;;;;;15.38;42.54;101097.00;5050464;28;20132;-84
2022/03/13 11:06:04;;;;;;;11.27;7.68;;;;;;;15.55;42.96;101088.03;5017970;28;20039;-85
2022/03/13 11:08:30;;;;;;;8.65;6.57;;;;;;;15.96;42.70;101088.84;5033564;28;20436;-84
2022/03/13 11:10:57;;;;;;;9.15;7.05;;;;;;;16.39;41.42;101083.84;5017145;28;20090;-84
2022/03/13 11:13:28;;;;;;;8.32;7.13;;;;;;;16.89;40.67;101080.25;5050467;28;20381;-85
2022/03/13 11:15:58;;;;;;;8.15;7.13;;;;;;;17.39;39.50;101081.19;5034593;28;20135;-85
2022/03/13 11:18:33;;;;;;;7.57;6.38;;;;;;;17.74;38.90;101073.63;5034820;28;20052;-84
2022/03/13 11:21:00;;;;;;;7.88;6.57;;;;;;;18.18;38.34;101065.28;5033780;28;20032;-84
2022/03/13 11:23:29;;;;;;;7.47;6.50;;;;;;;19.73;35.67;101067.84;5016885;28;20026;-85
2022/03/13 11:25:59;;;;;;;7.72;6.28;;;;;;;22.11;32.40;101068.16;5050952;28;20026;-85